Gatesville, TX

4:12 PM CDT on September 16, 2019 (GMT -0500)
Gatesville

Weather History for KGOP - August, 2019

Change the Weather History Date:

Monday, August 19, 2019

  Actual Average (KHLR) Record (KHLR)
Temperature  
Mean Temperature 88 °F -  
Max Temperature 98 °F 93 °F 108 °F (2011)
Min Temperature 77 °F 72 °F 69 °F (2004)
Cooling Degree Days 22    
Growing Degree Days 38 (Base 50)    
Moisture  
Dew Point 68 °F    
Average Humidity 55    
Maximum Humidity 89    
Minimum Humidity 30    
Precipitation  
Precipitation 0.00 in - - ()
Sea Level Pressure  
Sea Level Pressure 29.98 in    
Wind  
Wind Speed 6 mph ()    
Max Wind Speed 13 mph    
Max Gust Speed 18 mph    
Visibility 9.9 miles    
Events      
Averages and records for this station are not official NWS values.
T = Trace of Precipitation, MM = Missing Value Source: Averaged Metar Reports

Daily Weather History Graph

Daily Weather History Graph

Search for Another Location

Airport or City:

Astronomy

Aug. 19, 2019 Rise Set
Actual Time 6:59 AM CDT 8:10 PM CDT
Civil Twilight 6:33 AM CDT 8:35 PM CDT
Nautical Twilight 6:03 AM CDT 9:05 PM CDT
Astronomical Twilight 5:32 AM CDT 9:36 PM CDT
Moon 10:46 PM CDT (8/19) 10:29 AM CDT (8/19)
Length of Visible Light 14h 01m
Length of Day
13h 11m
Waning Gibbous, 85% of the Moon is Illuminated
Aug 19
Waning Gibbous
Aug 23
Last Quarter
Aug 30
New
Sep 5
First Quarter
Sep 13
Full

Hourly Weather History & Observations

Time (CDT) Temp. Heat Index Dew Point Humidity Pressure Visibility Wind Dir Wind Speed Gust Speed Precip Events Conditions
12:15 AM 86.0 °F 89.4 °F 68.0 °F 55% 29.94 in 10.0 mi SSE 10.4 mph - N/A   Clear
12:35 AM 86.0 °F 89.4 °F 68.0 °F 55% 29.94 in 10.0 mi SSE 10.4 mph - N/A   Clear
12:55 AM 84.2 °F 87.3 °F 68.0 °F 58% 29.94 in 10.0 mi SSE 6.9 mph 12.7 mph N/A   Clear
1:15 AM 84.2 °F 87.3 °F 68.0 °F 58% 29.94 in 10.0 mi SSE 6.9 mph - N/A   Clear
1:35 AM 84.2 °F 87.3 °F 68.0 °F 58% 29.95 in 10.0 mi SSE 3.5 mph - N/A   Clear
1:55 AM 82.4 °F 85.4 °F 68.0 °F 62% 29.95 in 10.0 mi SSE 5.8 mph - N/A   Clear
2:15 AM 82.4 °F 85.4 °F 68.0 °F 62% 29.95 in 10.0 mi SSE 4.6 mph - N/A   Clear
2:35 AM 80.6 °F 83.2 °F 68.0 °F 65% 29.95 in 10.0 mi SE 4.6 mph - N/A   Clear
2:55 AM 80.6 °F 83.2 °F 68.0 °F 65% 29.95 in 10.0 mi SE 3.5 mph - N/A   Clear
3:15 AM 80.6 °F 83.2 °F 68.0 °F 65% 29.95 in 10.0 mi SSE 4.6 mph - N/A   Clear
3:35 AM 80.6 °F 83.2 °F 68.0 °F 65% 29.96 in 9.0 mi SE 4.6 mph - N/A   Clear
3:55 AM 80.6 °F 83.9 °F 69.8 °F 70% 29.96 in 10.0 mi SE 5.8 mph - N/A   Clear
4:15 AM 78.8 °F - 69.8 °F 74% 29.97 in 10.0 mi SSE 4.6 mph - N/A   Clear
4:35 AM 78.8 °F - 69.8 °F 74% 29.97 in 10.0 mi SE 4.6 mph - N/A   Clear
4:55 AM 78.8 °F - 69.8 °F 74% 29.98 in 10.0 mi SSE 4.6 mph - N/A   Clear
5:15 AM 78.8 °F - 71.6 °F 78% 29.98 in 10.0 mi SSE 5.8 mph - N/A   Clear
5:35 AM 78.8 °F - 71.6 °F 78% 29.99 in 10.0 mi SE 4.6 mph - N/A   Clear
5:55 AM 77.0 °F - 71.6 °F 83% 29.99 in 10.0 mi SE 6.9 mph - N/A   Clear
6:15 AM 77.0 °F - 71.6 °F 83% 29.99 in 10.0 mi SSE 3.5 mph - N/A   Clear
6:35 AM 77.0 °F - 71.6 °F 83% 29.99 in 10.0 mi SE 4.6 mph - N/A   Clear
6:55 AM 77.0 °F - 71.6 °F 83% 30.00 in 10.0 mi SE 4.6 mph - N/A   Clear
7:15 AM 77.0 °F - 71.6 °F 83% 30.01 in 9.0 mi SE 4.6 mph - N/A   Clear
7:35 AM 77.0 °F - 73.4 °F 89% 30.01 in 9.0 mi ESE 4.6 mph - N/A   Clear
7:55 AM 77.0 °F - 73.4 °F 89% 30.02 in 9.0 mi Calm Calm - N/A   Clear
8:15 AM 78.8 °F - 73.4 °F 83% 30.02 in 9.0 mi SE 4.6 mph - N/A   Clear
8:35 AM 80.6 °F 85.4 °F 73.4 °F 79% 30.02 in 10.0 mi SE 8.1 mph - N/A   Clear
8:55 AM 82.4 °F 88.2 °F 73.4 °F 74% 30.03 in 10.0 mi South 12.7 mph 18.4 mph N/A   Clear
9:15 AM 82.4 °F 88.2 °F 73.4 °F 74% 30.03 in 10.0 mi SE 10.4 mph 17.3 mph N/A   Clear
9:35 AM 84.2 °F 89.6 °F 71.6 °F 66% 30.03 in - SSE 12.7 mph - N/A   Unknown
9:55 AM 84.2 °F 89.6 °F 71.6 °F 66% 30.03 in 10.0 mi SSE 12.7 mph - N/A   Unknown
10:15 AM 86.0 °F 91.8 °F 71.6 °F 62% 30.04 in 10.0 mi SE 8.1 mph 17.3 mph N/A   Clear
10:35 AM 87.8 °F 93.8 °F 71.6 °F 58% 30.03 in 10.0 mi SSE 11.5 mph 17.3 mph N/A   Clear
10:55 AM 87.8 °F 93.8 °F 71.6 °F 58% 30.03 in 10.0 mi South 9.2 mph 15.0 mph N/A   Clear
11:15 AM 89.6 °F 94.7 °F 69.8 °F 52% 30.03 in 10.0 mi South 11.5 mph - N/A   Clear
11:35 AM 89.6 °F 94.7 °F 69.8 °F 52% 30.03 in 10.0 mi SE 10.4 mph - N/A   Clear
11:55 AM 91.4 °F 96.8 °F 69.8 °F 49% 30.03 in 10.0 mi SSE 9.2 mph 16.1 mph N/A   Clear
12:15 PM 91.4 °F 95.4 °F 68.0 °F 46% 30.03 in 10.0 mi South 10.4 mph - N/A   Clear
12:35 PM 93.2 °F 98.8 °F 69.8 °F 46% 30.03 in 10.0 mi South 10.4 mph - N/A   Clear
12:55 PM 93.2 °F 98.8 °F 69.8 °F 46% 30.02 in 10.0 mi SSE 11.5 mph - N/A   Clear
1:15 PM 93.2 °F 97.7 °F 68.0 °F 44% 30.01 in 10.0 mi SSE 8.1 mph 13.8 mph N/A   Clear
1:35 PM 95.0 °F 98.5 °F 66.2 °F 39% 30.00 in 10.0 mi SSE 10.4 mph - N/A   Clear
1:55 PM 95.0 °F 99.5 °F 68.0 °F 41% 30.00 in 10.0 mi SSE 10.4 mph - N/A   Clear
2:15 PM 95.0 °F 98.5 °F 66.2 °F 39% 29.99 in 10.0 mi SE 11.5 mph - N/A   Clear
2:35 PM 96.8 °F 100.7 °F 66.2 °F 37% 29.99 in 10.0 mi South 10.4 mph 16.1 mph N/A   Clear
2:55 PM 96.8 °F 99.0 °F 64.4 °F 34% 29.98 in 10.0 mi SSE 9.2 mph 16.1 mph N/A   Clear
3:15 PM 96.8 °F 100.7 °F 66.2 °F 37% 29.97 in 10.0 mi SW 5.8 mph - N/A   Clear
3:35 PM 98.6 °F 101.0 °F 64.4 °F 32% 29.96 in 10.0 mi South 9.2 mph - N/A   Clear
3:55 PM 98.6 °F 102.8 °F 66.2 °F 35% 29.96 in 10.0 mi Variable 6.9 mph - N/A   Clear
4:15 PM 98.6 °F 101.0 °F 64.4 °F 32% 29.95 in 10.0 mi South 6.9 mph 16.1 mph N/A   Clear
4:35 PM 98.6 °F 100.0 °F 62.6 °F 30% 29.95 in 10.0 mi Variable 5.8 mph 12.7 mph N/A   Clear
4:55 PM 98.6 °F 100.0 °F 62.6 °F 30% 29.95 in 10.0 mi ESE 5.8 mph - N/A   Clear
5:15 PM 98.6 °F 101.0 °F 64.4 °F 32% 29.95 in 10.0 mi Variable 3.5 mph 11.5 mph N/A   Clear
5:35 PM 98.6 °F 101.0 °F 64.4 °F 32% 29.94 in 10.0 mi SSE 6.9 mph - N/A   Clear
5:55 PM 98.6 °F 100.0 °F 62.6 °F 30% 29.94 in 10.0 mi SSE 5.8 mph - N/A   Clear
6:15 PM 98.6 °F 101.0 °F 64.4 °F 32% 29.94 in 10.0 mi SE 9.2 mph - N/A   Clear
6:35 PM 96.8 °F 99.0 °F 64.4 °F 34% 29.94 in 10.0 mi Variable 5.8 mph 13.8 mph N/A   Clear
6:55 PM 96.8 °F 99.0 °F 64.4 °F 34% 29.94 in 10.0 mi ESE 5.8 mph 12.7 mph N/A   Clear
7:15 PM 95.0 °F 98.5 °F 66.2 °F 39% 29.94 in 10.0 mi Variable 5.8 mph - N/A   Clear
7:35 PM 95.0 °F 98.5 °F 66.2 °F 39% 29.95 in 10.0 mi ESE 4.6 mph - N/A   Clear
7:55 PM 93.2 °F 96.2 °F 66.2 °F 41% 29.95 in 10.0 mi Calm Calm - N/A   Clear
8:15 PM 91.4 °F 94.0 °F 66.2 °F 43% 29.96 in 10.0 mi Calm Calm - N/A   Clear
8:35 PM 89.6 °F 92.2 °F 66.2 °F 46% 29.96 in 10.0 mi Calm Calm - N/A   Clear
8:55 PM 89.6 °F 92.2 °F 66.2 °F 46% 29.97 in 10.0 mi Calm Calm - N/A   Clear
9:15 PM 87.8 °F 90.4 °F 66.2 °F 49% 29.97 in 10.0 mi Calm Calm - N/A   Clear
9:35 PM 87.8 °F 90.4 °F 66.2 °F 49% 29.98 in 10.0 mi Calm Calm - N/A   Clear
9:55 PM 86.0 °F 88.2 °F 66.2 °F 51% 29.99 in 10.0 mi Calm Calm - N/A   Clear
10:15 PM 86.0 °F 88.2 °F 66.2 °F 51% 30.00 in 10.0 mi Calm Calm - N/A   Clear
10:35 PM 86.0 °F 88.2 °F 66.2 °F 51% 30.01 in 10.0 mi Calm Calm - N/A   Clear
10:55 PM 84.2 °F 86.6 °F 66.2 °F 55% 30.02 in 10.0 mi Calm Calm - N/A   Clear
11:15 PM 84.2 °F 86.6 °F 66.2 °F 55% 30.02 in 10.0 mi Calm Calm - N/A   Clear
11:35 PM 84.2 °F 86.6 °F 66.2 °F 55% 30.02 in 10.0 mi Calm Calm - N/A   Clear
11:55 PM 84.2 °F 87.3 °F 68.0 °F 58% 30.02 in 10.0 mi Calm Calm - N/A   Clear